Flag for USA

Past Weather in Jackson, Mississippi, USA — September 2017

Currently: 64 °F. Light rain. Fog. (Weather station: Hawkins Field, USA). See more current weather

September 2017 Weather in Jackson — Graph

°F

High & Low Weather Summary for September 2017

 TemperatureHumidityPressure
High92 °F (Sep 22, 2:53 pm)100% (Sep 1, 12:53 am)30.17 "Hg (Sep 1, 12:53 am)
Low56 °F (Sep 7, 5:53 am)31% (Sep 29, 2:53 pm)29.71 "Hg (Sep 12, 4:53 am)
Average75 °F77%29.98 "Hg
* Reported Sep 1 12:53 am — Sep 30 11:53 pm, Jackson. Weather by CustomWeather, © 2020

Note: Actual official high and low records may vary slightly from our data, if they occured in-between our weather recording intervals... More about our weather records

Jackson Weather History for September 1, 2017

Scroll right to see more
 ConditionsComfort  
Time TempWeatherWind HumidityBarometerVisibility
12:53 am
Fri, Sep 1
69 °FClear.9 mph100%29.86 "Hg10 mi
1:53 am69 °FPassing clouds.6 mph100%29.87 "Hg10 mi
2:38 am68 °FPassing clouds.5 mph100%29.90 "Hg10 mi
2:53 am69 °FPassing clouds.5 mph100%29.88 "Hg10 mi
3:25 am68 °FPassing clouds.5 mph100%29.91 "Hg10 mi
3:53 am68 °FClear.6 mph100%29.88 "Hg10 mi
4:53 am68 °FClear.5 mph100%29.89 "Hg10 mi
5:04 am67 °FPassing clouds.5 mph100%29.92 "Hg10 mi
5:53 am67 °FClear.No wind100%29.92 "Hg9 mi
6:53 am67 °FFog.3 mph100%29.95 "Hg6 mi
7:04 am67 °FFog.3 mph100%29.98 "Hg6 mi
7:53 am69 °FScattered clouds.5 mph100%29.97 "Hg9 mi
8:18 am70 °FPartly sunny.5 mph100%30.00 "Hg10 mi
9:06 am73 °FPartly sunny.7 mph94%30.01 "Hg10 mi
9:53 am73 °FPartly sunny.6 mph88%30.00 "Hg10 mi
10:53 am77 °FPartly sunny.7 mph79%30.00 "Hg10 mi
11:27 am78 °FPassing clouds.6 mph76%30.02 "Hg10 mi
11:53 am78 °FScattered clouds.3 mph74%30.00 "Hg10 mi
12:53 pm81 °FPassing clouds.6 mph65%29.99 "Hg10 mi
1:53 pm82 °FBroken clouds.7 mph65%29.98 "Hg10 mi
2:53 pm83 °FPartly sunny.7 mph63%29.97 "Hg10 mi
3:53 pm85 °FSunny.8 mph59%29.95 "Hg10 mi
4:53 pm82 °FPassing clouds.7 mph65%29.95 "Hg10 mi
5:53 pm83 °FSunny.7 mph63%29.96 "Hg10 mi
6:53 pm79 °FSunny.3 mph74%29.96 "Hg10 mi
7:53 pm76 °FClear.No wind85%29.97 "Hg10 mi
8:53 pm74 °FClear.No wind94%29.99 "Hg10 mi
9:53 pm73 °FMild.No wind97%30.01 "HgN/A
10:53 pm71 °FClear.No wind100%30.01 "Hg8 mi
11:53 pm71 °FClear.No wind100%30.01 "Hg7 mi
Weather by CustomWeather, © 2020

See weather overview